Time;durP1;ratioP1;P1;durP2;ratioP2;P2;SDS_P1;SDS_P2;PMS_P1;PMS_P2;Temp;Humidity;BMP_temperature;BMP_pressure;BME280_temperature;BME280_humidity;BME280_pressure;Samples;Min_cycle;Max_cycle;Signal;HPM_P1;HPM_P2
2022/07/08 00:05:16;;;;;;;0.20;0.20;;;18.00;55.90;20.20;94879.00;;;;10437071;28;45845;-67
2022/07/08 00:10:37;;;;;;;0.30;0.30;;;18.00;55.90;20.20;94866.00;;;;10444037;22;45835;-68
2022/07/08 00:15:59;;;;;;;0.20;0.20;;;18.00;55.90;20.20;94876.00;;;;10436726;28;45159;-68
2022/07/08 00:21:20;;;;;;;0.60;0.30;;;18.00;55.90;20.20;94880.00;;;;10394952;28;45894;-68
2022/07/08 00:26:43;;;;;;;0.20;0.20;;;18.00;55.90;20.10;94876.00;;;;10393914;28;45725;-68
2022/07/08 00:32:06;;;;;;;0.52;0.20;;;18.00;55.90;20.10;94861.00;;;;10394178;28;45773;-68
2022/07/08 00:37:26;;;;;;;0.57;0.20;;;18.00;56.20;20.10;94866.00;;;;10393329;28;45560;-68
2022/07/08 00:42:48;;;;;;;0.40;0.20;;;18.00;55.90;20.10;94871.00;;;;10394201;28;45862;-68
2022/07/08 00:48:10;;;;;;;0.60;0.30;;;18.00;55.90;20.10;94873.00;;;;10393216;28;45237;-68
2022/07/08 00:53:32;;;;;;;0.15;0.15;;;18.00;55.90;20.10;94865.00;;;;10393552;28;45149;-68
2022/07/08 00:58:53;;;;;;;0.30;0.20;;;18.00;55.90;20.10;94874.00;;;;10391099;28;45286;-67
2022/07/08 01:04:15;;;;;;;0.40;0.30;;;18.00;55.80;20.10;94862.00;;;;10388813;28;45233;-67
2022/07/08 01:09:36;;;;;;;0.20;0.20;;;18.00;55.80;20.10;94875.00;;;;10392118;28;45333;-67
2022/07/08 01:14:56;;;;;;;0.20;0.20;;;18.00;55.80;20.10;94869.00;;;;10393385;28;45405;-67
2022/07/08 01:20:18;;;;;;;0.40;0.20;;;18.00;55.90;20.10;94884.00;;;;10392771;28;45167;-67
2022/07/08 01:25:40;;;;;;;0.35;0.20;;;18.00;55.90;20.10;94876.00;;;;10397838;28;45670;-67
2022/07/08 01:31:03;;;;;;;0.43;0.20;;;18.00;55.80;20.10;94878.00;;;;10399321;28;45263;-67
2022/07/08 01:36:24;;;;;;;0.40;0.20;;;17.90;55.70;20.10;94884.00;;;;10398842;28;45268;-68
2022/07/08 01:41:46;;;;;;;0.20;0.20;;;17.90;55.70;20.10;94887.00;;;;10399538;28;45107;-67
2022/07/08 01:47:06;;;;;;;0.10;0.10;;;17.90;55.70;20.10;94872.00;;;;10398639;28;45181;-68
2022/07/08 01:52:27;;;;;;;0.52;0.20;;;18.00;55.70;20.10;94888.00;;;;10398950;28;45192;-67
2022/07/08 01:57:49;;;;;;;0.28;0.20;;;17.90;55.70;20.10;94886.00;;;;10398862;28;45081;-67
2022/07/08 02:03:10;;;;;;;0.30;0.25;;;17.90;55.70;20.00;94898.00;;;;10398571;28;45812;-67
2022/07/08 02:08:31;;;;;;;0.40;0.30;;;17.90;55.60;20.10;94892.00;;;;10397451;28;45739;-68
2022/07/08 02:13:52;;;;;;;0.22;0.20;;;17.90;55.60;20.10;94878.00;;;;10398117;28;45173;-67
2022/07/08 02:19:13;;;;;;;0.10;0.10;;;17.90;55.60;20.10;94882.00;;;;10397794;28;45196;-67
2022/07/08 02:24:34;;;;;;;0.77;0.30;;;17.90;55.60;20.10;94880.00;;;;10397770;28;45752;-68
2022/07/08 02:29:56;;;;;;;0.38;0.10;;;17.90;55.60;20.10;94879.00;;;;10397308;28;45662;-67
2022/07/08 02:35:17;;;;;;;0.20;0.20;;;17.90;55.60;20.10;94896.00;;;;10396263;28;45247;-68
2022/07/08 02:40:37;;;;;;;0.13;0.13;;;17.90;56.20;20.10;94887.00;;;;10397196;28;45845;-67
2022/07/08 02:45:59;;;;;;;0.10;0.10;;;17.90;55.50;20.10;94905.00;;;;10397135;28;45151;-67
2022/07/08 02:51:20;;;;;;;0.32;0.20;;;17.90;55.50;20.00;94913.00;;;;10397149;28;45113;-67
2022/07/08 02:56:40;;;;;;;0.10;0.10;;;17.90;55.50;20.00;94918.00;;;;10396543;28;45733;-67
2022/07/08 03:02:02;;;;;;;0.13;0.10;;;17.90;55.60;20.00;94914.00;;;;10396824;28;45213;-67
2022/07/08 03:07:22;;;;;;;0.40;0.22;;;17.90;55.60;20.00;94913.00;;;;10395240;28;45193;-67
2022/07/08 03:12:43;;;;;;;0.20;0.20;;;17.90;55.50;20.00;94923.00;;;;10396665;28;45120;-67
2022/07/08 03:18:05;;;;;;;0.10;0.10;;;17.80;55.50;20.00;94922.00;;;;10396089;28;46408;-67
2022/07/08 03:23:26;;;;;;;0.60;0.30;;;17.90;55.50;20.00;94911.00;;;;10396096;28;45112;-68
2022/07/08 03:28:47;;;;;;;0.20;0.20;;;17.90;55.50;20.00;94932.00;;;;10395414;28;45232;-67
2022/07/08 03:34:08;;;;;;;0.20;0.20;;;17.90;55.50;20.00;94923.00;;;;10395643;28;45268;-68
2022/07/08 03:39:29;;;;;;;0.40;0.20;;;17.90;55.50;20.00;94925.00;;;;10395339;28;45269;-67
2022/07/08 03:44:49;;;;;;;0.10;0.10;;;17.90;55.50;20.00;94945.00;;;;10395229;28;45685;-67
2022/07/08 03:50:11;;;;;;;0.13;0.13;;;17.90;55.60;20.00;94951.00;;;;10395283;28;45251;-67
2022/07/08 03:55:32;;;;;;;0.22;0.20;;;17.90;55.50;20.00;94957.00;;;;10394855;28;45201;-67
2022/07/08 04:00:53;;;;;;;0.13;0.13;;;17.90;55.50;20.00;94963.00;;;;10394684;28;45817;-67
2022/07/08 04:06:16;;;;;;;0.20;0.20;;;17.90;55.60;20.00;94968.00;;;;10394392;28;47551;-67
2022/07/08 04:11:37;;;;;;;0.25;0.25;;;17.90;55.50;20.00;94974.00;;;;10394997;28;45183;-67
2022/07/08 04:16:57;;;;;;;0.60;0.40;;;17.90;55.60;20.00;94974.00;;;;10394449;28;45835;-68
2022/07/08 04:22:19;;;;;;;0.20;0.20;;;17.90;55.60;20.00;94960.00;;;;10394728;28;45207;-68
2022/07/08 04:27:40;;;;;;;0.63;0.30;;;17.90;55.60;20.00;94983.00;;;;10402143;28;45123;-67
2022/07/08 04:33:00;;;;;;;0.40;0.25;;;17.90;55.60;20.00;94971.00;;;;10393965;28;45785;-68
2022/07/08 04:38:22;;;;;;;0.60;0.30;;;17.90;55.60;20.00;94961.00;;;;10393826;28;45721;-67
2022/07/08 04:43:43;;;;;;;0.50;0.30;;;17.90;55.50;20.00;94963.00;;;;10393714;28;45164;-68
2022/07/08 04:49:04;;;;;;;0.40;0.28;;;17.90;55.60;20.00;94977.00;;;;10393242;28;45120;-67
2022/07/08 04:54:26;;;;;;;0.63;0.30;;;17.90;55.50;20.00;94968.00;;;;10393549;28;45829;-67
2022/07/08 04:59:46;;;;;;;0.50;0.40;;;17.90;55.60;20.00;94964.00;;;;10396717;28;46273;-68
2022/07/08 05:05:08;;;;;;;0.55;0.20;;;17.80;55.50;20.00;94975.00;;;;10401023;28;45392;-67
2022/07/08 05:10:30;;;;;;;0.38;0.30;;;17.90;55.60;20.00;94967.00;;;;10399607;28;45177;-68
2022/07/08 05:15:50;;;;;;;0.45;0.20;;;17.90;55.50;20.00;94983.00;;;;10399885;28;45689;-67
2022/07/08 05:21:11;;;;;;;0.43;0.20;;;17.90;55.50;20.00;94984.00;;;;10400101;28;45172;-68
2022/07/08 05:26:33;;;;;;;0.40;0.30;;;17.80;55.50;20.00;94981.00;;;;10399835;28;45207;-67
2022/07/08 05:31:54;;;;;;;0.38;0.30;;;17.90;55.50;20.00;94986.00;;;;10399824;28;45437;-67
2022/07/08 05:37:15;;;;;;;0.55;0.30;;;17.90;55.50;20.00;94998.00;;;;10399529;28;45208;-68
2022/07/08 05:42:38;;;;;;;0.85;0.40;;;17.80;56.20;20.00;94992.00;;;;10399338;28;45255;-67
2022/07/08 05:47:58;;;;;;;0.57;0.30;;;17.90;55.50;20.00;95011.00;;;;10398874;28;45207;-67
2022/07/08 05:53:19;;;;;;;0.30;0.30;;;17.90;55.50;20.00;95018.00;;;;10399308;28;45315;-67
2022/07/08 05:58:41;;;;;;;0.38;0.20;;;17.90;55.50;20.00;95020.00;;;;10398553;28;45164;-68
2022/07/08 06:04:01;;;;;;;0.32;0.30;;;17.90;55.50;20.00;95022.00;;;;10398958;28;45914;-67
2022/07/08 06:09:22;;;;;;;1.08;0.20;;;17.80;55.50;20.00;95016.00;;;;10453411;22;45242;-63
2022/07/08 06:14:44;;;;;;;1.27;0.20;;;17.90;55.50;20.00;95028.00;;;;10480128;28;45179;-63
2022/07/08 06:20:06;;;;;;;0.52;0.40;;;17.90;56.20;20.00;95036.00;;;;10437640;28;45537;-63
2022/07/08 06:25:27;;;;;;;0.45;0.22;;;17.90;55.50;20.00;95035.00;;;;10433362;28;45433;-63
2022/07/08 06:30:49;;;;;;;0.47;0.28;;;17.90;55.50;20.00;95037.00;;;;10439285;28;45152;-62
2022/07/08 06:36:10;;;;;;;2.30;0.30;;;17.90;55.50;20.00;95026.00;;;;10437425;28;45160;-63
2022/07/08 06:41:30;;;;;;;0.38;0.20;;;17.90;55.60;20.00;95026.00;;;;10439195;28;45861;-63
2022/07/08 06:46:52;;;;;;;0.30;0.30;;;17.90;55.50;20.00;95020.00;;;;10439117;28;45668;-63
2022/07/08 06:52:13;;;;;;;0.50;0.40;;;17.90;55.60;20.10;95027.00;;;;10438090;28;45708;-61
2022/07/08 06:57:34;;;;;;;0.40;0.30;;;17.90;55.50;20.00;95022.00;;;;10438278;28;45207;-61
2022/07/08 07:02:56;;;;;;;0.35;0.35;;;17.90;55.40;20.00;95029.00;;;;10438037;28;45693;-62
2022/07/08 07:08:17;;;;;;;0.32;0.30;;;17.90;55.50;20.00;95014.00;;;;10437000;28;45684;-62
2022/07/08 07:13:37;;;;;;;0.20;0.20;;;17.80;55.50;20.00;95016.00;;;;10438512;28;45863;-61
2022/07/08 07:18:59;;;;;;;0.57;0.30;;;17.90;55.50;20.00;95029.00;;;;10437441;28;45398;-62
2022/07/08 07:24:20;;;;;;;0.30;0.20;;;17.90;55.50;20.10;95043.00;;;;10401024;28;45676;-61
2022/07/08 07:29:41;;;;;;;2.03;0.50;;;17.90;55.40;20.10;95039.00;;;;10394201;28;45244;-63
2022/07/08 07:35:03;;;;;;;0.68;0.40;;;17.90;55.40;20.10;95035.00;;;;10394673;28;45171;-62
2022/07/08 07:40:24;;;;;;;0.70;0.30;;;18.00;55.40;20.10;95035.00;;;;10394544;28;45174;-63
2022/07/08 07:45:44;;;;;;;1.52;0.38;;;18.00;55.10;20.20;95032.00;;;;10427049;28;45186;-62
2022/07/08 07:51:06;;;;;;;0.75;0.52;;;18.00;54.90;20.20;95027.00;;;;10404619;28;45657;-62
2022/07/08 07:56:27;;;;;;;1.70;0.60;;;18.10;54.60;20.20;95033.00;;;;10394390;28;45183;-63
2022/07/08 08:01:48;;;;;;;1.70;0.60;;;18.10;54.00;20.20;95033.00;;;;10430704;28;45157;-61
2022/07/08 08:07:10;;;;;;;1.05;0.40;;;18.10;54.30;20.20;95042.00;;;;10436667;28;45380;-61
2022/07/08 08:12:30;;;;;;;1.98;0.80;;;18.10;54.40;20.20;95019.00;;;;10436492;28;45774;-61
2022/07/08 08:17:50;;;;;;;1.60;0.52;;;18.10;54.60;20.20;95028.00;;;;10436081;28;45229;-61
2022/07/08 08:23:12;;;;;;;0.55;0.38;;;18.10;54.50;20.20;95046.00;;;;10435693;28;45232;-61
2022/07/08 08:28:33;;;;;;;1.88;0.60;;;18.10;54.80;20.20;95044.00;;;;10435339;28;45199;-61
2022/07/08 08:33:53;;;;;;;1.02;0.40;;;18.10;54.70;20.20;95042.00;;;;10439498;28;45220;-61
2022/07/08 08:39:15;;;;;;;1.10;0.40;;;18.10;54.70;20.20;95040.00;;;;10442582;28;45669;-61
2022/07/08 08:44:36;;;;;;;1.27;0.50;;;18.10;54.80;20.20;95045.00;;;;10442316;28;45688;-61
2022/07/08 08:50:53;;;;;;;1.42;0.60;;;18.10;55.40;20.20;95033.00;;;;10441532;28;45205;-62
2022/07/08 08:55:40;;;;;;;1.10;0.40;;;18.10;55.50;20.20;95042.00;;;;10441503;28;45117;-62
2022/07/08 09:01:00;;;;;;;0.73;0.40;;;18.10;54.80;20.20;95037.00;;;;10441950;28;45259;-63
2022/07/08 09:06:21;;;;;;;0.95;0.50;;;18.10;54.80;20.20;95037.00;;;;10441692;28;45152;-61
2022/07/08 09:11:45;;;;;;;0.68;0.43;;;18.10;54.80;20.20;95038.00;;;;10441878;28;45763;-61
2022/07/08 09:17:12;;;;;;;0.88;0.40;;;18.00;54.80;20.20;95038.00;;;;10441081;28;45189;-61
2022/07/08 09:22:33;;;;;;;0.43;0.40;;;18.00;55.00;20.20;95035.00;;;;10441368;28;45229;-61
2022/07/08 09:27:58;;;;;;;1.27;0.40;;;18.00;54.90;20.20;95043.00;;;;10440657;28;45773;-62
2022/07/08 09:33:20;;;;;;;2.55;0.55;;;18.00;55.00;20.20;95028.00;;;;10441419;28;45256;-61
2022/07/08 09:38:42;;;;;;;1.65;0.52;;;18.00;55.10;20.20;95020.00;;;;10440919;28;45236;-61
2022/07/08 09:44:04;;;;;;;0.60;0.30;;;18.00;55.10;20.20;95027.00;;;;10440687;28;45128;-62
2022/07/08 09:49:30;;;;;;;0.45;0.35;;;18.00;55.10;20.20;95011.00;;;;10440131;28;45780;-62
2022/07/08 09:55:02;;;;;;;1.02;0.50;;;18.00;55.10;20.20;95021.00;;;;10440640;28;45235;-61
2022/07/08 10:00:24;;;;;;;0.85;0.40;;;18.00;55.70;20.20;95008.00;;;;10439541;28;45147;-62
2022/07/08 10:05:46;;;;;;;0.90;0.50;;;18.00;55.10;20.20;95003.00;;;;10439918;28;45155;-61
2022/07/08 10:11:08;;;;;;;0.30;0.30;;;18.00;55.10;20.20;95014.00;;;;10439642;28;45303;-62
2022/07/08 10:16:31;;;;;;;0.30;0.30;;;18.00;55.10;20.20;95019.00;;;;10432843;28;45285;-62
2022/07/08 10:21:55;;;;;;;0.55;0.30;;;18.00;55.00;20.20;95021.00;;;;10405725;28;45684;-62
2022/07/08 10:27:16;;;;;;;0.57;0.40;;;18.00;55.10;20.20;95017.00;;;;10397277;28;45296;-61
2022/07/08 10:32:38;;;;;;;0.95;0.40;;;18.00;55.10;20.20;95026.00;;;;10397605;28;45200;-62
2022/07/08 10:37:59;;;;;;;0.60;0.40;;;18.00;55.00;20.20;95011.00;;;;10397466;28;45497;-61
2022/07/08 10:43:26;;;;;;;0.50;0.40;;;18.10;54.90;20.20;95030.00;;;;10397458;28;45859;-62
2022/07/08 10:48:56;;;;;;;0.90;0.43;;;18.10;55.10;20.20;95012.00;;;;10396954;28;45212;-62
2022/07/08 10:54:35;;;;;;;0.60;0.40;;;18.10;55.00;20.20;95006.00;;;;10396625;28;45195;-61
2022/07/08 11:00:05;;;;;;;1.13;0.50;;;18.00;55.00;20.20;95017.00;;;;10395600;28;45694;-62
2022/07/08 11:05:38;;;;;;;0.57;0.30;;;18.00;55.00;20.20;95022.00;;;;10396476;28;45119;-63
2022/07/08 11:10:59;;;;;;;0.40;0.30;;;18.00;54.90;20.20;95012.00;;;;10395626;28;45225;-61
2022/07/08 11:16:20;;;;;;;0.82;0.40;;;18.30;55.10;20.20;95011.00;;;;10395832;28;45167;-61
2022/07/08 11:21:41;;;;;;;2.25;0.40;;;18.00;55.00;20.20;95017.00;;;;10395747;28;45178;-62
2022/07/08 11:27:02;;;;;;;0.50;0.38;;;18.00;55.00;20.20;95011.00;;;;10395357;28;45765;-62
2022/07/08 11:32:26;;;;;;;0.60;0.40;;;18.10;55.10;20.20;95019.00;;;;10395584;28;45883;-63
2022/07/08 11:37:49;;;;;;;0.82;0.30;;;18.00;55.00;20.20;95008.00;;;;10395033;28;45212;-63
2022/07/08 11:43:15;;;;;;;0.22;0.20;;;18.10;55.00;20.20;95003.00;;;;10395418;28;45853;-62
2022/07/08 11:48:39;;;;;;;0.47;0.43;;;18.10;55.00;20.20;95003.00;;;;10405543;28;45806;-62
2022/07/08 11:54:01;;;;;;;0.60;0.38;;;18.10;55.00;20.30;95017.00;;;;10413771;28;45303;-62
2022/07/08 11:59:22;;;;;;;0.40;0.30;;;18.10;55.00;20.20;95010.00;;;;10394690;28;45206;-62
2022/07/08 12:04:47;;;;;;;1.58;0.40;;;18.10;55.00;20.20;95011.00;;;;10395313;28;45121;-62
2022/07/08 12:10:09;;;;;;;0.45;0.40;;;18.10;55.00;20.20;95017.00;;;;10394640;28;45297;-62
2022/07/08 12:15:35;;;;;;;1.58;0.40;;;18.10;55.00;20.30;95017.00;;;;10395418;28;45311;-61
2022/07/08 12:20:56;;;;;;;0.85;0.40;;;18.10;55.10;20.30;95009.00;;;;10394530;28;45185;-61
2022/07/08 12:26:18;;;;;;;0.80;0.40;;;18.20;55.20;20.30;95003.00;;;;10394856;28;45793;-61
2022/07/08 12:31:41;;;;;;;0.70;0.40;;;18.20;55.20;20.30;95004.00;;;;10395060;28;45221;-61
2022/07/08 12:37:15;;;;;;;0.65;0.40;;;18.20;55.20;20.30;95002.00;;;;10393831;28;45271;-61
2022/07/08 12:42:37;;;;;;;0.70;0.50;;;18.20;55.20;20.30;95006.00;;;;10394837;28;45279;-62
2022/07/08 12:47:59;;;;;;;1.35;0.40;;;18.20;55.40;20.40;95007.00;;;;10394300;28;45766;-62
2022/07/08 12:53:19;;;;;;;1.15;0.32;;;18.20;55.30;20.30;95007.00;;;;10394592;28;45202;-62
2022/07/08 12:58:41;;;;;;;1.05;0.30;;;18.20;55.30;20.30;95001.00;;;;10393977;28;45194;-62
2022/07/08 13:04:03;;;;;;;0.77;0.43;;;18.20;55.30;20.40;95010.00;;;;10394406;28;45164;-61
2022/07/08 13:09:25;;;;;;;0.40;0.40;;;18.20;55.20;20.30;95021.00;;;;10393211;28;45112;-62
2022/07/08 13:14:47;;;;;;;0.63;0.40;;;18.20;55.20;20.30;95014.00;;;;10393927;28;45123;-62
2022/07/08 13:20:08;;;;;;;0.30;0.30;;;18.20;55.30;20.40;95015.00;;;;10396045;28;45172;-62
2022/07/08 13:25:29;;;;;;;1.02;0.40;;;18.20;55.30;20.40;95013.00;;;;10419898;28;45662;-62
2022/07/08 13:30:51;;;;;;;1.15;0.50;;;18.30;55.30;20.40;95016.00;;;;10442041;28;45360;-63
2022/07/08 13:36:11;;;;;;;0.60;0.50;;;18.30;55.30;20.40;95014.00;;;;10441553;28;45851;-62
2022/07/08 13:41:32;;;;;;;0.60;0.50;;;18.30;55.90;20.50;95013.00;;;;10442179;28;45359;-64
2022/07/08 13:46:54;;;;;;;0.60;0.40;;;18.30;55.20;20.50;95006.00;;;;10441095;28;45163;-63
2022/07/08 13:52:14;;;;;;;1.20;0.40;;;18.30;55.10;20.50;95005.00;;;;10441610;28;45172;-63
2022/07/08 13:57:35;;;;;;;1.33;0.45;;;18.30;55.80;20.50;95010.00;;;;10440430;28;45209;-61
2022/07/08 14:02:57;;;;;;;0.47;0.30;;;18.30;55.30;20.50;94989.00;;;;10440381;28;45213;-61
2022/07/08 14:08:18;;;;;;;0.70;0.40;;;18.30;55.30;20.50;95013.00;;;;10439842;28;45696;-63
2022/07/08 14:13:38;;;;;;;1.35;0.50;;;18.30;55.20;20.40;94994.00;;;;10440598;28;45208;-61
2022/07/08 14:19:00;;;;;;;1.58;0.63;;;18.30;55.30;20.50;94995.00;;;;10440066;28;45299;-63
2022/07/08 14:24:21;;;;;;;0.40;0.40;;;18.30;55.30;20.50;94984.00;;;;10440549;28;45161;-61
2022/07/08 14:29:41;;;;;;;0.60;0.38;;;18.30;55.20;20.50;94981.00;;;;10439660;28;45295;-61
2022/07/08 14:35:04;;;;;;;1.23;0.50;;;18.40;55.20;20.50;94990.00;;;;10439395;28;45192;-61
2022/07/08 14:40:24;;;;;;;0.80;0.40;;;18.40;55.20;20.50;94993.00;;;;10435364;28;45303;-61
2022/07/08 14:45:45;;;;;;;0.52;0.30;;;18.40;55.10;20.50;94990.00;;;;10435983;28;45579;-61
2022/07/08 14:51:07;;;;;;;2.30;0.65;;;18.40;55.10;20.60;94990.00;;;;10438075;28;45701;-62
2022/07/08 14:56:28;;;;;;;1.23;0.50;;;18.40;55.10;20.60;94978.00;;;;10438110;28;45204;-61
2022/07/08 15:01:49;;;;;;;1.42;0.40;;;18.40;55.00;20.60;94986.00;;;;10438131;28;45708;-61
2022/07/08 15:07:11;;;;;;;0.75;0.35;;;18.40;55.00;20.60;94977.00;;;;10437549;28;45185;-60
2022/07/08 15:12:32;;;;;;;0.95;0.50;;;18.50;55.00;20.60;94985.00;;;;10437820;28;45231;-61
2022/07/08 15:17:52;;;;;;;0.70;0.57;;;18.50;54.90;20.60;94979.00;;;;10437264;28;45673;-61
2022/07/08 15:23:14;;;;;;;0.57;0.43;;;18.50;54.90;20.70;94975.00;;;;10430566;28;45383;-61
2022/07/08 15:28:34;;;;;;;1.52;0.80;;;18.50;55.00;20.70;94960.00;;;;10436086;28;45165;-62
2022/07/08 15:33:55;;;;;;;1.73;1.00;;;18.60;54.80;20.70;94972.00;;;;10436472;28;45141;-62
2022/07/08 15:39:17;;;;;;;1.50;1.10;;;18.60;54.80;20.70;94969.00;;;;10436464;28;45498;-62
2022/07/08 15:44:39;;;;;;;1.50;1.00;;;18.60;54.80;20.80;94963.00;;;;10436067;28;45243;-62
2022/07/08 15:49:59;;;;;;;1.35;1.05;;;18.60;54.70;20.80;94964.00;;;;10435422;28;45365;-62
2022/07/08 15:55:21;;;;;;;2.40;1.20;;;18.70;54.70;20.80;94963.00;;;;10433721;28;45234;-61
2022/07/08 16:00:41;;;;;;;1.65;1.17;;;18.70;54.60;20.80;94956.00;;;;10431763;28;45859;-62
2022/07/08 16:06:02;;;;;;;2.22;1.33;;;18.70;54.50;20.80;94958.00;;;;10435693;28;45170;-61
2022/07/08 16:11:24;;;;;;;1.67;1.27;;;18.70;54.50;20.90;94962.00;;;;10435784;28;45910;-62
2022/07/08 16:16:45;;;;;;;1.35;1.10;;;18.80;54.50;20.90;94949.00;;;;10435622;28;45138;-63
2022/07/08 16:22:06;;;;;;;2.08;1.45;;;18.80;54.50;20.90;94956.00;;;;10435959;28;45101;-62
2022/07/08 16:27:29;;;;;;;2.05;1.85;;;18.80;54.50;20.80;94950.00;;;;10434996;28;45116;-61
2022/07/08 16:32:49;;;;;;;2.58;2.00;;;18.80;54.50;20.90;94958.00;;;;10430020;28;45454;-62
2022/07/08 16:38:10;;;;;;;3.30;2.20;;;18.80;54.50;20.90;94948.00;;;;10432623;28;45239;-64
2022/07/08 16:43:32;;;;;;;2.83;2.05;;;18.80;54.50;20.90;94945.00;;;;10435043;28;45240;-62
2022/07/08 16:48:53;;;;;;;2.17;1.95;;;18.80;54.50;20.90;94947.00;;;;10433747;28;45681;-62
2022/07/08 16:54:14;;;;;;;3.75;2.00;;;18.80;54.40;20.90;94939.00;;;;10436716;28;45207;-63
2022/07/08 16:59:37;;;;;;;2.47;1.88;;;18.80;54.50;20.90;94963.00;;;;10438800;28;45843;-62
2022/07/08 17:04:57;;;;;;;3.10;2.35;;;18.80;54.40;20.90;94959.00;;;;10440853;28;45165;-62
2022/07/08 17:10:18;;;;;;;3.67;2.90;;;18.80;54.50;20.90;94950.00;;;;10440101;28;45210;-62
2022/07/08 17:15:40;;;;;;;4.25;3.47;;;18.80;54.50;20.90;94951.00;;;;10440734;28;45712;-63
2022/07/08 17:21:00;;;;;;;4.45;3.38;;;18.80;54.50;20.90;94954.00;;;;10441465;28;45188;-62
2022/07/08 17:26:22;;;;;;;4.50;3.25;;;18.80;54.50;20.90;94964.00;;;;10440368;28;45269;-62
2022/07/08 17:31:43;;;;;;;3.65;3.17;;;18.80;54.50;20.90;94955.00;;;;10441140;28;45673;-62
2022/07/08 17:37:05;;;;;;;4.40;3.08;;;18.80;54.50;20.90;94952.00;;;;10440230;28;45269;-63
2022/07/08 17:42:26;;;;;;;3.63;2.92;;;18.80;54.60;20.90;94962.00;;;;10440398;28;45689;-62
2022/07/08 17:47:48;;;;;;;3.30;3.00;;;18.80;54.60;20.90;94955.00;;;;10439147;28;45120;-63
2022/07/08 17:53:09;;;;;;;3.65;2.92;;;18.70;54.60;20.90;94958.00;;;;10440339;28;45796;-62
2022/07/08 17:58:29;;;;;;;3.30;2.58;;;18.70;54.60;20.90;94939.00;;;;10438997;28;45100;-62
2022/07/08 18:03:51;;;;;;;2.45;2.20;;;18.70;54.60;20.90;94945.00;;;;10440066;28;45267;-62
2022/07/08 18:09:12;;;;;;;3.17;2.50;;;18.70;54.60;20.80;94957.00;;;;10439315;28;45363;-62
2022/07/08 18:14:33;;;;;;;3.13;2.20;;;18.70;54.60;20.80;94960.00;;;;10439485;28;45257;-62
2022/07/08 18:19:55;;;;;;;2.42;2.05;;;18.70;54.60;20.80;94962.00;;;;10438727;28;45121;-62
2022/07/08 18:25:16;;;;;;;3.75;2.40;;;18.70;54.70;20.80;94960.00;;;;10439024;28;45263;-62
2022/07/08 18:30:37;;;;;;;2.78;2.28;;;18.70;54.70;20.80;94960.00;;;;10438947;28;45133;-62
2022/07/08 18:35:59;;;;;;;3.35;2.30;;;18.60;54.80;20.80;94954.00;;;;10438504;28;45161;-62
2022/07/08 18:41:20;;;;;;;2.45;2.13;;;18.60;54.80;20.70;94947.00;;;;10438495;28;45157;-62
2022/07/08 18:46:40;;;;;;;2.90;2.20;;;18.60;54.80;20.70;94958.00;;;;10437785;28;46216;-62
2022/07/08 18:52:02;;;;;;;3.05;2.05;;;18.60;54.90;20.70;94955.00;;;;10438110;28;45235;-62
2022/07/08 18:57:22;;;;;;;2.55;2.13;;;18.60;55.00;20.70;94962.00;;;;10437590;28;45247;-62
2022/07/08 19:02:43;;;;;;;2.67;2.25;;;18.50;55.00;20.70;94967.00;;;;10438068;28;45748;-62
2022/07/08 19:08:06;;;;;;;2.97;2.08;;;18.50;55.00;20.60;94966.00;;;;10436141;28;45273;-62
2022/07/08 19:13:27;;;;;;;2.10;1.90;;;18.50;55.10;20.60;94961.00;;;;10437967;28;45202;-62
2022/07/08 19:18:47;;;;;;;2.88;2.25;;;18.50;55.10;20.60;94962.00;;;;10435741;28;45903;-62
2022/07/08 19:24:09;;;;;;;4.45;2.10;;;18.50;55.20;20.60;94977.00;;;;10437169;28;45657;-62
2022/07/08 19:29:30;;;;;;;2.95;1.90;;;18.50;55.20;20.60;94982.00;;;;10429363;28;45645;-62
2022/07/08 19:34:50;;;;;;;2.22;1.85;;;18.40;55.20;20.60;94978.00;;;;10436382;28;45210;-62
2022/07/08 19:40:14;;;;;;;2.63;2.20;;;18.40;55.30;20.60;94972.00;;;;10436314;28;45179;-62
2022/07/08 19:45:35;;;;;;;3.00;2.20;;;18.40;55.50;20.60;94980.00;;;;10436385;28;45227;-62
2022/07/08 19:50:56;;;;;;;2.33;2.05;;;18.40;55.30;20.60;94993.00;;;;10436145;28;45144;-62
2022/07/08 19:56:18;;;;;;;2.20;1.88;;;18.40;55.40;20.50;94997.00;;;;10436195;28;45222;-62
2022/07/08 20:01:40;;;;;;;2.88;2.33;;;18.40;55.40;20.50;95002.00;;;;10431046;28;45773;-62
2022/07/08 20:07:01;;;;;;;2.80;2.10;;;18.40;55.50;20.50;95004.00;;;;10434272;28;45227;-62
2022/07/08 20:12:22;;;;;;;2.30;2.00;;;18.40;55.50;20.50;95000.00;;;;10436310;28;45097;-62
2022/07/08 20:17:43;;;;;;;2.35;2.10;;;18.30;55.50;20.50;95010.00;;;;10435836;28;45331;-63
2022/07/08 20:23:03;;;;;;;2.40;2.20;;;18.30;55.50;20.50;95012.00;;;;10436197;28;45680;-62
2022/07/08 20:28:25;;;;;;;2.25;2.05;;;18.40;55.50;20.50;95011.00;;;;10434638;28;45366;-63
2022/07/08 20:33:46;;;;;;;2.60;1.85;;;18.30;55.50;20.50;95012.00;;;;10436153;28;45779;-62
2022/07/08 20:39:06;;;;;;;2.60;2.00;;;18.30;55.50;20.50;95024.00;;;;10434956;28;45146;-62
2022/07/08 20:44:28;;;;;;;2.55;2.28;;;18.30;55.50;20.50;95022.00;;;;10435111;28;45848;-62
2022/07/08 20:49:49;;;;;;;2.70;2.00;;;18.30;55.60;20.50;95012.00;;;;10431825;28;45390;-64
2022/07/08 20:55:12;;;;;;;2.80;1.83;;;18.30;55.50;20.50;95011.00;;;;10433203;28;45462;-62
2022/07/08 21:00:34;;;;;;;1.98;1.75;;;18.30;55.60;20.50;95023.00;;;;10433514;28;45212;-62
2022/07/08 21:05:55;;;;;;;2.20;1.90;;;18.30;55.50;20.40;95022.00;;;;10433088;28;45233;-62
2022/07/08 21:11:15;;;;;;;2.33;1.90;;;18.30;55.60;20.50;95013.00;;;;10432529;28;45835;-63
2022/07/08 21:16:37;;;;;;;2.13;1.73;;;18.30;55.50;20.40;95019.00;;;;10432264;28;45255;-63
2022/07/08 21:21:58;;;;;;;2.75;2.00;;;18.20;55.50;20.40;95019.00;;;;10434582;28;45185;-62
2022/07/08 21:27:21;;;;;;;2.45;1.90;;;18.20;55.50;20.40;95010.00;;;;10432248;28;45379;-62
2022/07/08 21:32:42;;;;;;;2.28;1.67;;;18.30;55.50;20.40;95020.00;;;;10432238;28;45787;-62
2022/07/08 21:38:03;;;;;;;1.55;1.23;;;18.30;55.50;20.40;95003.00;;;;10431163;28;45505;-62
2022/07/08 21:43:24;;;;;;;1.90;1.70;;;18.30;55.50;20.40;95014.00;;;;10436484;28;45492;-63
2022/07/08 21:48:46;;;;;;;2.10;1.52;;;18.20;55.50;20.40;95010.00;;;;10437868;28;45168;-62
2022/07/08 21:54:07;;;;;;;1.42;1.33;;;18.20;55.50;20.40;95003.00;;;;10439449;28;45177;-62
2022/07/08 21:59:27;;;;;;;1.70;1.42;;;18.20;55.50;20.40;95015.00;;;;10437969;28;45702;-63
2022/07/08 22:04:52;;;;;;;2.85;1.40;;;18.20;55.50;20.40;95017.00;;;;10436534;28;45768;-62
2022/07/08 22:10:13;;;;;;;1.45;1.17;;;18.20;55.50;20.40;95010.00;;;;10435259;28;45236;-62
2022/07/08 22:15:33;;;;;;;1.30;1.20;;;18.20;55.40;20.40;94992.00;;;;10437746;28;45207;-61
2022/07/08 22:20:56;;;;;;;1.73;1.30;;;18.10;55.50;20.30;95003.00;;;;10437729;28;45327;-62
2022/07/08 22:26:16;;;;;;;1.50;1.10;;;18.20;55.50;20.30;94985.00;;;;10438944;28;45698;-62
2022/07/08 22:31:36;;;;;;;1.38;1.10;;;18.20;55.60;20.30;94996.00;;;;10438801;28;45180;-61
2022/07/08 22:36:58;;;;;;;1.85;1.30;;;18.20;55.40;20.30;94991.00;;;;10437454;28;45443;-61
2022/07/08 22:42:21;;;;;;;1.33;1.20;;;18.20;55.30;20.30;94984.00;;;;10437228;28;45879;-62
2022/07/08 22:47:44;;;;;;;1.25;1.02;;;18.10;55.30;20.30;94969.00;;;;10437560;28;45290;-62
2022/07/08 22:53:06;;;;;;;1.40;1.02;;;18.20;55.30;20.30;94986.00;;;;10436870;28;45250;-62
2022/07/08 22:58:26;;;;;;;1.25;1.00;;;18.20;55.30;20.30;94972.00;;;;10435770;28;45169;-61
2022/07/08 23:03:47;;;;;;;1.77;1.20;;;18.20;55.30;20.30;94976.00;;;;10437255;28;45174;-62
2022/07/08 23:09:08;;;;;;;0.73;0.73;;;18.10;55.30;20.30;94975.00;;;;10436139;28;45492;-61
2022/07/08 23:14:29;;;;;;;1.00;0.90;;;18.10;55.20;20.30;94981.00;;;;10436549;28;45175;-62
2022/07/08 23:19:50;;;;;;;1.70;1.10;;;18.10;55.20;20.30;94984.00;;;;10436237;28;45153;-63
2022/07/08 23:25:11;;;;;;;0.70;0.70;;;18.10;55.20;20.30;94986.00;;;;10436482;28;45145;-61
2022/07/08 23:30:32;;;;;;;1.10;0.90;;;18.10;55.10;20.30;94967.00;;;;10436074;28;45252;-62
2022/07/08 23:35:53;;;;;;;1.13;0.85;;;18.10;55.10;20.30;94972.00;;;;10435907;28;45877;-62